createdAt,value
2022-10-20T00:06:39.205Z,2.60
2022-10-20T00:16:42.800Z,2.90
2022-10-20T00:26:46.660Z,2.00
2022-10-20T00:36:52.263Z,2.00
2022-10-20T00:46:57.867Z,2.20
2022-10-20T01:07:09.906Z,1.90
2022-10-20T01:17:13.797Z,1.70
2022-10-20T01:27:23.473Z,2.30
2022-10-20T01:37:48.919Z,3.10
2022-10-20T01:47:54.243Z,2.80
2022-10-20T01:58:27.100Z,2.50
2022-10-20T02:08:48.925Z,2.30
2022-10-20T02:18:53.274Z,1.80
2022-10-20T02:29:03.762Z,2.50
2022-10-20T02:39:08.757Z,2.20
2022-10-20T02:49:12.423Z,2.20
2022-10-20T02:59:17.726Z,2.50
2022-10-20T03:09:21.382Z,2.90
2022-10-20T03:19:25.269Z,2.50
2022-10-20T03:29:29.032Z,2.30
2022-10-20T03:39:32.596Z,2.20
2022-10-20T03:49:36.457Z,2.40
2022-10-20T03:59:40.458Z,2.90
2022-10-20T04:09:44.099Z,2.60
2022-10-20T04:19:47.868Z,2.80
2022-10-20T04:29:51.848Z,2.80
2022-10-20T04:39:58.078Z,3.10
2022-10-20T04:50:02.255Z,2.50
2022-10-20T05:00:07.061Z,3.20
2022-10-20T05:10:10.688Z,2.60
2022-10-20T05:20:14.775Z,2.50
2022-10-20T05:30:18.782Z,2.80
2022-10-20T05:40:23.016Z,4.90
2022-10-20T05:50:27.011Z,5.10
2022-10-20T06:00:32.210Z,3.90
2022-10-20T06:10:35.970Z,4.60
2022-10-20T06:20:39.928Z,4.60
2022-10-20T06:30:43.433Z,5.50
2022-10-20T06:40:47.294Z,6.60
2022-10-20T06:50:56.142Z,5.70
2022-10-20T07:01:10.126Z,4.70
2022-10-20T07:11:21.495Z,17.60
2022-10-20T07:21:32.295Z,32.00
2022-10-20T07:31:48.911Z,15.00
2022-10-20T07:41:52.753Z,7.20
2022-10-20T07:51:56.201Z,13.80
2022-10-20T08:02:00.311Z,5.80
2022-10-20T08:12:05.989Z,5.20
2022-10-20T08:22:09.560Z,4.00
2022-10-20T08:32:14.851Z,3.90
2022-10-20T08:42:18.625Z,2.40
2022-10-20T08:52:24.853Z,1.60
2022-10-20T09:02:33.525Z,1.30
2022-10-20T09:12:40.676Z,1.90
2022-10-20T09:22:44.449Z,1.30
2022-10-20T09:32:50.055Z,2.00
2022-10-20T09:43:19.518Z,2.10
2022-10-20T09:53:32.782Z,1.60
2022-10-20T10:03:44.020Z,1.20
2022-10-20T10:13:52.721Z,1.60
2022-10-20T10:24:04.861Z,1.70
2022-10-20T10:34:14.673Z,1.70
2022-10-20T10:44:52.783Z,1.30
2022-10-20T10:55:11.713Z,1.50
2022-10-20T11:05:30.165Z,1.30
2022-10-20T11:16:07.465Z,1.40
2022-10-20T11:26:24.223Z,1.50
2022-10-20T11:36:35.986Z,1.40
2022-10-20T11:47:02.105Z,1.70
2022-10-20T11:57:21.420Z,1.60
2022-10-20T12:07:45.513Z,1.20
2022-10-20T12:17:51.671Z,1.80
2022-10-20T12:28:21.002Z,1.40
2022-10-20T12:38:26.388Z,1.60
2022-10-20T12:48:36.164Z,2.10
2022-10-20T12:59:20.710Z,2.10
2022-10-20T13:09:25.483Z,2.00
2022-10-20T13:19:45.320Z,1.60
2022-10-20T13:29:49.402Z,1.50
2022-10-20T13:39:56.347Z,1.80
2022-10-20T13:50:14.274Z,1.70
2022-10-20T14:00:26.935Z,2.00
2022-10-20T14:11:00.338Z,1.90
2022-10-20T14:21:09.034Z,1.90
2022-10-20T14:31:14.629Z,1.90
2022-10-20T14:41:32.004Z,1.80
2022-10-20T14:51:45.477Z,2.10
2022-10-20T15:02:02.491Z,2.40
2022-10-20T15:12:08.699Z,2.20
2022-10-20T15:32:22.891Z,3.10
2022-10-20T15:42:27.062Z,3.40
2022-10-20T15:52:31.354Z,2.90
2022-10-20T16:02:36.740Z,3.90
2022-10-20T16:12:44.496Z,4.70
2022-10-20T16:22:48.575Z,6.20
2022-10-20T16:32:52.646Z,11.00
2022-10-20T16:42:56.825Z,23.00
2022-10-20T16:53:01.950Z,15.90
2022-10-20T17:03:06.721Z,19.40
2022-10-20T17:13:11.109Z,28.20
2022-10-20T17:23:15.813Z,18.80
2022-10-20T17:33:21.130Z,18.80
2022-10-20T17:43:29.084Z,18.30
2022-10-20T18:03:43.696Z,16.70
2022-10-20T18:13:49.771Z,15.50
2022-10-20T18:24:05.834Z,31.50
2022-10-20T18:34:15.558Z,29.60
2022-10-20T18:44:21.248Z,18.60
2022-10-20T18:54:26.945Z,24.50
2022-10-20T19:04:31.836Z,23.30
2022-10-20T19:14:38.585Z,26.70
2022-10-20T19:24:48.939Z,31.20
2022-10-20T19:34:53.593Z,28.20
2022-10-20T19:44:58.774Z,29.90
2022-10-20T19:55:03.803Z,27.90
2022-10-20T20:05:09.999Z,29.80
2022-10-20T20:15:16.227Z,35.70
2022-10-20T20:25:20.264Z,33.20
2022-10-20T20:35:24.882Z,28.20
2022-10-20T20:45:29.572Z,30.00
2022-10-20T20:55:33.584Z,28.80
2022-10-20T21:05:38.335Z,24.40
2022-10-20T21:15:41.998Z,23.10
2022-10-20T21:25:47.109Z,31.90
2022-10-20T21:35:50.957Z,23.00
2022-10-20T21:45:55.051Z,27.90
2022-10-20T21:55:59.315Z,27.80
2022-10-20T22:06:03.711Z,28.80
2022-10-20T22:16:10.628Z,25.30
2022-10-20T22:26:15.196Z,25.90
2022-10-20T22:36:20.436Z,30.70
2022-10-20T22:46:24.666Z,19.20
2022-10-20T22:56:28.696Z,20.50
2022-10-20T23:06:32.665Z,21.00
2022-10-20T23:16:36.568Z,21.60
2022-10-20T23:26:40.706Z,23.20
2022-10-20T23:36:44.380Z,18.90
2022-10-20T23:46:48.040Z,19.40
2022-10-20T23:56:51.838Z,21.30
